createdAt,value
2023-01-25T00:03:06.774Z,57.60
2023-01-25T00:06:34.114Z,55.30
2023-01-25T00:10:01.757Z,54.40
2023-01-25T00:13:28.910Z,53.80
2023-01-25T00:16:56.110Z,52.80
2023-01-25T00:20:23.563Z,53.10
2023-01-25T00:23:50.891Z,53.70
2023-01-25T00:27:18.051Z,51.60
2023-01-25T00:30:45.307Z,49.90
2023-01-25T00:34:45.453Z,53.70
2023-01-25T00:38:29.928Z,55.10
2023-01-25T00:41:57.210Z,65.50
2023-01-25T00:45:24.209Z,58.30
2023-01-25T00:48:54.136Z,50.50
2023-01-25T00:52:22.627Z,48.10
2023-01-25T00:55:55.997Z,53.20
2023-01-25T00:59:23.368Z,49.80
2023-01-25T01:02:50.751Z,50.60
2023-01-25T01:06:18.417Z,53.00
2023-01-25T01:09:45.904Z,51.00
2023-01-25T01:13:13.230Z,46.90
2023-01-25T01:16:42.447Z,50.10
2023-01-25T01:20:12.186Z,47.60
2023-01-25T01:23:39.991Z,46.60
2023-01-25T01:27:07.637Z,43.60
2023-01-25T01:30:34.530Z,43.70
2023-01-25T01:34:02.012Z,41.80
2023-01-25T01:37:29.330Z,42.20
2023-01-25T01:40:56.255Z,43.90
2023-01-25T01:44:37.478Z,40.70
2023-01-25T01:48:05.007Z,45.10
2023-01-25T01:51:42.236Z,43.60
2023-01-25T01:55:18.163Z,40.40
2023-01-25T01:58:46.515Z,36.50
2023-01-25T02:02:13.602Z,36.70
2023-01-25T02:05:48.710Z,39.30
2023-01-25T02:09:19.795Z,36.30
2023-01-25T02:12:49.215Z,35.40
2023-01-25T02:16:20.901Z,38.80
2023-01-25T02:19:55.556Z,35.70
2023-01-25T02:23:31.565Z,36.00
2023-01-25T02:26:59.138Z,35.30
2023-01-25T02:30:28.226Z,33.80
2023-01-25T02:33:55.710Z,35.00
2023-01-25T02:37:22.971Z,33.20
2023-01-25T02:40:57.068Z,37.30
2023-01-25T02:44:27.915Z,30.10
2023-01-25T02:47:56.480Z,32.90
2023-01-25T02:51:25.706Z,31.60
2023-01-25T02:54:52.987Z,35.40
2023-01-25T02:58:20.295Z,36.10
2023-01-25T03:01:48.406Z,34.80
2023-01-25T03:05:16.428Z,35.20
2023-01-25T03:08:44.051Z,35.80
2023-01-25T03:12:11.487Z,35.80
2023-01-25T03:15:39.297Z,34.20
2023-01-25T03:19:06.578Z,35.20
2023-01-25T03:22:33.876Z,34.10
2023-01-25T03:26:10.539Z,34.80
2023-01-25T03:29:40.057Z,35.20
2023-01-25T03:33:10.843Z,36.90
2023-01-25T03:36:37.802Z,38.30
2023-01-25T03:40:05.753Z,38.00
2023-01-25T03:43:33.593Z,37.90
2023-01-25T03:47:01.643Z,39.00
2023-01-25T03:50:29.135Z,37.90
2023-01-25T03:53:56.017Z,40.30
2023-01-25T03:57:23.168Z,38.40
2023-01-25T04:00:55.731Z,41.00
2023-01-25T04:04:23.315Z,45.80
2023-01-25T04:07:51.136Z,37.20
2023-01-25T04:11:20.883Z,44.50
2023-01-25T04:14:48.742Z,43.30
2023-01-25T04:18:21.295Z,40.30
2023-01-25T04:21:48.357Z,44.70
2023-01-25T04:25:15.996Z,39.60
2023-01-25T04:28:47.664Z,41.70
2023-01-25T04:32:14.749Z,39.70
2023-01-25T04:35:42.139Z,41.30
2023-01-25T04:39:09.296Z,51.00
2023-01-25T04:42:37.249Z,38.40
2023-01-25T04:46:05.581Z,38.50
2023-01-25T04:49:33.196Z,35.70
2023-01-25T04:53:00.284Z,47.40
2023-01-25T04:56:27.988Z,34.80
2023-01-25T04:59:55.974Z,50.20
2023-01-25T05:03:23.493Z,44.00
2023-01-25T05:06:50.485Z,36.30
2023-01-25T05:10:17.904Z,37.50
2023-01-25T05:14:04.814Z,33.20
2023-01-25T05:17:33.305Z,34.70
2023-01-25T05:21:00.451Z,33.00
2023-01-25T05:24:29.083Z,34.90
2023-01-25T05:27:57.186Z,45.20
2023-01-25T05:31:41.371Z,34.80
2023-01-25T05:35:11.544Z,31.90
2023-01-25T05:38:39.085Z,32.80
2023-01-25T05:42:13.834Z,30.70
2023-01-25T05:45:41.542Z,30.90
2023-01-25T05:49:09.159Z,27.90
2023-01-25T05:52:36.235Z,28.20
2023-01-25T05:56:10.260Z,26.00
2023-01-25T05:59:37.369Z,26.40
2023-01-25T06:03:05.652Z,24.80
2023-01-25T06:06:35.468Z,24.10
2023-01-25T06:10:03.953Z,24.50
2023-01-25T06:13:31.495Z,24.20
2023-01-25T06:16:58.820Z,23.20
2023-01-25T06:20:26.180Z,22.50
2023-01-25T06:24:05.589Z,26.90
2023-01-25T06:27:32.594Z,28.50
2023-01-25T06:31:04.548Z,20.30
2023-01-25T06:34:31.975Z,20.20
2023-01-25T06:37:59.843Z,18.90
2023-01-25T06:41:26.813Z,19.30
2023-01-25T06:44:54.089Z,19.80
2023-01-25T06:48:20.981Z,20.00
2023-01-25T06:51:47.861Z,17.20
2023-01-25T06:55:14.859Z,20.40
2023-01-25T06:58:42.214Z,17.20
2023-01-25T07:02:10.772Z,28.10
2023-01-25T07:05:37.840Z,20.10
2023-01-25T07:09:10.206Z,28.90
2023-01-25T07:12:37.106Z,18.20
2023-01-25T07:16:05.872Z,16.30
2023-01-25T07:19:32.772Z,18.80
2023-01-25T07:23:02.104Z,21.30
2023-01-25T07:26:29.336Z,21.80
2023-01-25T07:29:56.143Z,17.60
2023-01-25T07:33:23.033Z,19.40
2023-01-25T07:36:49.938Z,17.70
2023-01-25T07:40:18.214Z,16.50
2023-01-25T07:43:45.055Z,15.10
2023-01-25T07:47:12.000Z,14.40
2023-01-25T07:50:39.532Z,15.00
2023-01-25T07:54:07.745Z,14.30
2023-01-25T07:57:35.129Z,15.30
2023-01-25T08:01:09.080Z,16.00
2023-01-25T08:04:36.803Z,17.10
2023-01-25T08:08:03.960Z,15.90
2023-01-25T08:11:32.860Z,17.40
2023-01-25T08:14:59.845Z,14.70
2023-01-25T08:18:26.697Z,14.90
2023-01-25T08:21:53.824Z,15.80
2023-01-25T08:25:21.111Z,15.00
2023-01-25T08:28:48.315Z,14.80
2023-01-25T08:32:16.234Z,15.10
2023-01-25T08:35:43.029Z,13.50
2023-01-25T08:39:12.035Z,16.60
2023-01-25T08:42:39.163Z,14.60
2023-01-25T08:46:06.897Z,13.30
2023-01-25T08:49:35.430Z,14.50
2023-01-25T08:53:02.211Z,16.60
2023-01-25T08:56:29.051Z,17.60
2023-01-25T08:59:55.928Z,16.70
2023-01-25T09:03:22.749Z,17.20
2023-01-25T09:06:49.693Z,16.10
2023-01-25T09:10:17.573Z,17.40
2023-01-25T09:13:44.724Z,16.80
2023-01-25T09:17:12.105Z,15.00
2023-01-25T09:20:41.011Z,15.60
2023-01-25T09:24:09.725Z,16.90
2023-01-25T09:27:37.121Z,15.10
2023-01-25T09:31:21.136Z,20.20
2023-01-25T09:35:02.320Z,16.90
2023-01-25T09:38:29.879Z,19.80
2023-01-25T09:42:15.701Z,18.50
2023-01-25T09:45:42.688Z,18.20
2023-01-25T09:49:22.620Z,17.70
2023-01-25T09:53:03.748Z,18.90
2023-01-25T09:56:35.115Z,16.40
2023-01-25T10:00:08.455Z,15.70
2023-01-25T10:03:46.945Z,15.30
2023-01-25T10:07:25.623Z,14.50
2023-01-25T10:11:00.018Z,15.80
2023-01-25T10:14:27.933Z,16.60
2023-01-25T10:18:02.891Z,15.80
2023-01-25T10:21:36.493Z,15.90
2023-01-25T10:25:33.969Z,16.50
2023-01-25T10:29:10.068Z,16.60
2023-01-25T10:32:39.737Z,15.80
2023-01-25T10:36:18.168Z,16.20
2023-01-25T10:40:01.660Z,16.50
2023-01-25T10:43:28.691Z,17.50
2023-01-25T10:47:07.253Z,17.30
2023-01-25T10:50:53.745Z,17.10
2023-01-25T10:54:23.420Z,16.10
2023-01-25T10:57:52.739Z,16.90
2023-01-25T11:01:32.426Z,16.70
2023-01-25T11:04:59.425Z,15.20
2023-01-25T11:08:33.548Z,16.20
2023-01-25T11:12:02.123Z,17.70
2023-01-25T11:15:29.321Z,18.40
2023-01-25T11:18:57.886Z,16.80
2023-01-25T11:22:26.153Z,15.80
2023-01-25T11:25:53.866Z,17.50
2023-01-25T11:29:22.592Z,17.90
2023-01-25T11:32:49.748Z,17.00
2023-01-25T11:36:36.476Z,17.40
2023-01-25T11:40:15.960Z,16.50
2023-01-25T11:44:05.540Z,17.60
2023-01-25T11:47:48.913Z,17.70
2023-01-25T11:51:25.001Z,18.10
2023-01-25T11:55:05.644Z,17.10
2023-01-25T11:58:49.499Z,18.70
2023-01-25T12:02:41.287Z,22.30
2023-01-25T12:06:14.789Z,21.30
2023-01-25T12:09:56.740Z,19.50
2023-01-25T12:13:33.967Z,20.20
2023-01-25T12:17:14.575Z,20.10
2023-01-25T12:21:03.057Z,19.20
2023-01-25T12:24:45.646Z,18.30
2023-01-25T12:28:21.235Z,31.00
2023-01-25T12:31:55.821Z,23.10
2023-01-25T12:35:32.921Z,24.80
2023-01-25T12:39:05.044Z,33.90
2023-01-25T12:42:37.441Z,29.00
2023-01-25T12:46:10.486Z,22.80
2023-01-25T12:49:44.521Z,22.10
2023-01-25T12:53:18.847Z,36.50
2023-01-25T12:56:53.512Z,27.10
2023-01-25T13:00:31.870Z,23.40
2023-01-25T13:04:15.701Z,23.60
2023-01-25T13:07:54.738Z,23.30
2023-01-25T13:11:24.967Z,24.00
2023-01-25T13:14:52.153Z,23.10
2023-01-25T13:18:41.970Z,21.40
2023-01-25T13:22:10.871Z,23.70
2023-01-25T13:25:37.863Z,21.60
2023-01-25T13:29:05.098Z,24.70
2023-01-25T13:32:59.209Z,28.50
2023-01-25T13:36:47.990Z,24.60
2023-01-25T13:40:32.582Z,23.00
2023-01-25T13:44:22.955Z,70.20
2023-01-25T13:48:04.831Z,109.00
2023-01-25T13:51:36.835Z,51.70
2023-01-25T13:55:17.655Z,35.00
2023-01-25T13:58:49.344Z,66.30
2023-01-25T14:02:20.680Z,79.30
2023-01-25T14:05:54.603Z,41.40
2023-01-25T14:09:22.847Z,59.30
2023-01-25T14:12:50.663Z,80.70
2023-01-25T14:16:20.804Z,96.90
2023-01-25T14:19:50.901Z,83.40
2023-01-25T14:23:26.384Z,92.50
2023-01-25T14:26:54.069Z,53.10
2023-01-25T14:30:24.245Z,34.80
2023-01-25T14:33:57.762Z,32.30
2023-01-25T14:37:25.002Z,28.80
2023-01-25T14:40:54.410Z,27.80
2023-01-25T14:44:22.369Z,29.50
2023-01-25T14:47:59.122Z,31.20
2023-01-25T14:51:31.175Z,34.80
2023-01-25T14:55:00.389Z,34.80
2023-01-25T14:58:31.685Z,48.10
2023-01-25T15:02:00.897Z,40.90
2023-01-25T15:05:29.179Z,45.30
2023-01-25T15:08:56.710Z,38.60
2023-01-25T15:12:40.131Z,35.40
2023-01-25T15:16:07.857Z,39.70
2023-01-25T15:19:35.339Z,47.20
2023-01-25T15:23:07.460Z,70.20
2023-01-25T15:26:36.961Z,52.10
2023-01-25T15:30:05.035Z,56.40
2023-01-25T15:33:34.019Z,62.80
2023-01-25T15:37:01.317Z,44.00
2023-01-25T15:40:28.426Z,38.70
2023-01-25T15:43:55.470Z,35.60
2023-01-25T15:47:22.612Z,30.20
2023-01-25T15:50:49.921Z,30.90
2023-01-25T15:54:17.062Z,30.70
2023-01-25T15:57:46.980Z,30.10
2023-01-25T16:01:14.591Z,29.80
2023-01-25T16:04:42.223Z,28.50
2023-01-25T16:08:13.757Z,40.10
2023-01-25T16:11:40.979Z,33.20
2023-01-25T16:15:10.321Z,35.50
2023-01-25T16:18:37.343Z,31.60
2023-01-25T16:22:04.640Z,34.70
2023-01-25T16:25:32.112Z,31.70
2023-01-25T16:28:59.259Z,33.30
2023-01-25T16:32:26.526Z,32.30
2023-01-25T16:36:15.502Z,31.50
2023-01-25T16:39:42.565Z,35.40
2023-01-25T16:43:09.601Z,40.40
2023-01-25T16:46:36.563Z,35.90
2023-01-25T16:50:03.573Z,36.10
2023-01-25T16:53:30.615Z,36.60
2023-01-25T16:56:58.963Z,36.40
2023-01-25T17:00:27.578Z,35.60
2023-01-25T17:03:55.637Z,42.70
2023-01-25T17:07:22.912Z,36.00
2023-01-25T17:10:51.023Z,39.90
2023-01-25T17:14:20.471Z,43.80
2023-01-25T17:17:48.312Z,42.20
2023-01-25T17:21:17.790Z,38.30
2023-01-25T17:28:10.974Z,42.80
2023-01-25T17:31:39.792Z,40.30
2023-01-25T17:35:08.403Z,47.50
2023-01-25T17:38:35.505Z,43.50
2023-01-25T17:42:02.832Z,39.00
2023-01-25T17:58:46.729Z,38.50
2023-01-25T18:02:14.573Z,35.90
2023-01-25T18:05:42.218Z,35.50
2023-01-25T18:09:09.999Z,33.70
2023-01-25T18:12:37.952Z,33.80
2023-01-25T18:16:05.764Z,34.20
2023-01-25T18:19:33.395Z,36.10
2023-01-25T18:23:00.712Z,36.30
2023-01-25T18:26:30.543Z,35.00
2023-01-25T18:30:04.241Z,34.00
2023-01-25T18:33:33.309Z,35.00
2023-01-25T18:37:01.247Z,36.30
2023-01-25T18:40:30.411Z,38.20
2023-01-25T18:43:58.740Z,36.20
2023-01-25T18:47:27.819Z,43.50
2023-01-25T18:50:55.433Z,40.80
2023-01-25T18:54:23.708Z,38.70
2023-01-25T18:57:51.701Z,37.50
2023-01-25T19:01:21.231Z,37.70
2023-01-25T19:04:49.973Z,35.70
2023-01-25T19:08:19.359Z,37.50
2023-01-25T19:11:47.783Z,35.10
2023-01-25T19:15:17.023Z,38.20
2023-01-25T19:18:47.191Z,35.30
2023-01-25T19:22:16.374Z,40.70
2023-01-25T19:29:11.423Z,39.70
2023-01-25T19:32:40.224Z,37.80
2023-01-25T19:36:15.454Z,37.20
2023-01-25T19:39:44.904Z,37.20
2023-01-25T19:43:15.187Z,36.70
2023-01-25T19:46:44.887Z,43.50
2023-01-25T19:53:46.432Z,49.00
2023-01-25T19:57:17.299Z,46.80
2023-01-25T20:00:46.753Z,46.90
2023-01-25T20:04:19.638Z,50.20
2023-01-25T20:07:48.376Z,47.40
2023-01-25T20:11:19.759Z,47.50
2023-01-25T20:14:48.591Z,50.10
2023-01-25T20:18:17.527Z,49.30
2023-01-25T20:21:47.386Z,49.10
2023-01-25T20:25:17.192Z,51.60
2023-01-25T20:28:49.425Z,55.80
2023-01-25T20:32:32.046Z,56.20
2023-01-25T20:36:05.650Z,51.30
2023-01-25T20:39:34.983Z,56.80
2023-01-25T20:46:34.515Z,55.40
2023-01-25T20:50:04.132Z,53.80
2023-01-25T20:53:35.409Z,48.70
2023-01-25T20:57:04.835Z,51.80
2023-01-25T21:00:34.007Z,47.50
2023-01-25T21:04:03.875Z,47.90
2023-01-25T21:07:33.302Z,47.30
2023-01-25T21:11:03.533Z,44.50
2023-01-25T21:14:31.452Z,42.40
2023-01-25T21:17:58.953Z,45.10
2023-01-25T21:21:29.539Z,48.30
2023-01-25T21:24:57.121Z,47.90
2023-01-25T21:28:24.444Z,51.70
2023-01-25T21:31:53.290Z,51.90
2023-01-25T21:35:20.491Z,51.30
2023-01-25T21:38:48.731Z,51.10
2023-01-25T21:42:15.907Z,51.50
2023-01-25T21:46:01.065Z,52.30
2023-01-25T21:49:45.604Z,47.50
2023-01-25T21:53:12.954Z,47.50
2023-01-25T21:56:39.912Z,47.70
2023-01-25T22:00:09.079Z,44.70
2023-01-25T22:03:36.315Z,46.00
2023-01-25T22:07:03.481Z,47.40
2023-01-25T22:10:30.513Z,46.60
2023-01-25T22:13:58.237Z,48.40
2023-01-25T22:17:25.695Z,53.30
2023-01-25T22:20:59.788Z,55.30
2023-01-25T22:24:27.288Z,55.60
2023-01-25T22:28:00.998Z,50.20
2023-01-25T22:31:29.708Z,48.50
2023-01-25T22:34:57.132Z,45.80
2023-01-25T22:38:24.536Z,48.50
2023-01-25T22:41:51.494Z,46.90
2023-01-25T22:45:18.620Z,50.60
2023-01-25T22:48:45.768Z,50.90
2023-01-25T22:52:12.743Z,47.40
2023-01-25T22:55:39.784Z,49.50
2023-01-25T22:59:08.148Z,49.90
2023-01-25T23:02:37.164Z,48.40
2023-01-25T23:06:07.915Z,45.90
2023-01-25T23:09:34.951Z,43.50
2023-01-25T23:13:02.131Z,48.40
2023-01-25T23:16:29.105Z,46.90
2023-01-25T23:19:56.224Z,45.70
2023-01-25T23:23:23.429Z,44.80
2023-01-25T23:26:50.387Z,43.50
2023-01-25T23:30:18.643Z,44.30
2023-01-25T23:33:45.773Z,47.70
2023-01-25T23:37:14.911Z,51.30
2023-01-25T23:40:43.752Z,46.50
2023-01-25T23:44:10.711Z,47.10
2023-01-25T23:47:38.240Z,48.10
2023-01-25T23:51:05.886Z,46.80
2023-01-25T23:54:33.165Z,46.80
2023-01-25T23:58:00.190Z,45.00
